KVTN/VTN METAR and TAF weather

Enter ICAO airport designator
Station Type Date Time Source
KVTN METAR 2024/05/28 22:52 UTC NOAA

KVTN 282252Z AUTO 36006KT 10SM CLR 23/07 A3018 RMK AO2 SLP215 T02330072


Station Type Date Time Source
KVTN Decoded METAR 2024/05/28 22:52 UTC NOAA

MILLER FIELD - VALENTINE, NE, NE, United States (KVTN) 42-52N 100-33W 788M
May 28, 2024 - 06:52 PM EDT / 2024.05.28 2252 UTC
Wind: from the N (360 degrees) at 7 MPH (6 KT):0
Visibility: 10 mile(s):0
Sky conditions: clear
Temperature: 73.9 F (23.3 C)
Dew Point: 45.0 F (7.2 C)
Relative Humidity: 35%
Pressure (altimeter): 30.18 in. Hg (1022 hPa)
ob: KVTN 282252Z AUTO 36006KT 10SM CLR 23/07 A3018 RMK AO2 SLP215 T02330072
cycle: 23

Station Type Date Time Source
KVTN TAF 2024/05/28 22:33 UTC NOAA